Time;durP1;ratioP1;P1;durP2;ratioP2;P2;SDS_P1;SDS_P2;PMS_P1;PMS_P2;Temp;Humidity;BMP_temperature;BMP_pressure;BME280_temperature;BME280_humidity;BME280_pressure;Samples;Min_cycle;Max_cycle;Signal;HPM_P1;HPM_P2
2022/07/22 00:01:02;;;;;;;6.05;4.80;;;20.60;62.40;;;;;;5013377;28;20026;-73
2022/07/22 00:03:28;;;;;;;8.40;5.38;;;20.60;62.50;;;;;;5013448;28;20033;-72
2022/07/22 00:05:53;;;;;;;8.85;5.60;;;20.60;62.70;;;;;;5013235;28;20022;-72
2022/07/22 00:08:19;;;;;;;6.05;4.88;;;20.60;62.70;;;;;;5013341;28;20026;-72
2022/07/22 00:10:45;;;;;;;8.23;5.35;;;20.70;62.50;;;;;;5013261;28;20065;-72
2022/07/22 00:13:10;;;;;;;6.85;5.28;;;20.70;62.40;;;;;;5013277;28;20382;-73
2022/07/22 00:15:36;;;;;;;5.85;4.90;;;20.70;62.20;;;;;;5013077;28;20025;-72
2022/07/22 00:18:01;;;;;;;6.50;4.95;;;20.60;62.30;;;;;;5013140;28;20042;-71
2022/07/22 00:20:27;;;;;;;6.85;4.88;;;20.50;62.70;;;;;;5013098;28;20109;-71
2022/07/22 00:22:52;;;;;;;6.35;4.82;;;20.40;63.50;;;;;;5013196;28;20100;-71
2022/07/22 00:25:18;;;;;;;7.80;4.65;;;20.40;63.80;;;;;;5013110;28;20053;-71
2022/07/22 00:27:43;;;;;;;6.75;5.10;;;20.40;63.70;;;;;;5013129;28;20440;-71
2022/07/22 00:30:10;;;;;;;7.80;4.93;;;20.40;63.60;;;;;;5013003;28;20026;-72
2022/07/22 00:32:35;;;;;;;11.05;5.72;;;20.40;63.40;;;;;;5013089;28;20026;-72
2022/07/22 00:35:01;;;;;;;7.20;5.30;;;20.30;64.00;;;;;;5011738;28;20030;-72
2022/07/22 00:37:26;;;;;;;7.93;5.05;;;20.20;64.30;;;;;;5012927;28;20069;-72
2022/07/22 00:39:52;;;;;;;7.10;5.38;;;20.10;65.00;;;;;;5012794;28;20018;-72
2022/07/22 00:42:18;;;;;;;7.85;5.03;;;19.90;65.60;;;;;;5012889;28;20068;-72
2022/07/22 00:44:43;;;;;;;6.45;5.80;;;19.90;65.60;;;;;;5012705;28;20062;-72
2022/07/22 00:47:09;;;;;;;7.28;5.50;;;19.80;65.90;;;;;;5012769;28;20033;-73
2022/07/22 00:49:35;;;;;;;6.13;5.30;;;19.70;66.40;;;;;;5012783;28;20490;-72
2022/07/22 00:52:01;;;;;;;7.95;5.75;;;19.60;66.70;;;;;;5012705;28;20041;-72
2022/07/22 00:54:26;;;;;;;7.60;5.28;;;19.60;67.20;;;;;;5012718;28;20029;-72
2022/07/22 00:56:52;;;;;;;11.38;5.75;;;19.40;67.80;;;;;;5012117;28;20042;-71
2022/07/22 00:59:18;;;;;;;6.93;5.72;;;19.40;67.90;;;;;;5012469;28;20033;-72
2022/07/22 01:01:44;;;;;;;6.45;5.63;;;19.40;68.00;;;;;;5012493;28;20037;-72
2022/07/22 01:04:09;;;;;;;7.13;5.70;;;19.30;68.20;;;;;;5013090;28;20112;-72
2022/07/22 01:06:35;;;;;;;9.75;5.50;;;19.40;68.20;;;;;;5012559;28;20097;-72
2022/07/22 01:09:01;;;;;;;6.20;5.60;;;19.40;68.10;;;;;;5011585;28;20474;-72
2022/07/22 01:11:27;;;;;;;7.65;6.28;;;19.40;68.10;;;;;;5012223;28;20526;-72
2022/07/22 01:13:54;;;;;;;6.38;5.20;;;19.50;67.90;;;;;;5012353;28;20045;-72
2022/07/22 01:16:19;;;;;;;10.02;5.45;;;19.50;67.90;;;;;;5012281;28;20026;-72
2022/07/22 01:18:46;;;;;;;7.80;6.30;;;19.40;68.10;;;;;;5012153;28;20564;-71
2022/07/22 01:21:12;;;;;;;12.43;6.43;;;19.40;68.10;;;;;;5011004;28;20092;-71
2022/07/22 01:23:38;;;;;;;8.52;6.22;;;19.30;68.40;;;;;;5012327;28;20083;-72
2022/07/22 01:26:04;;;;;;;7.22;5.63;;;19.30;68.50;;;;;;5012073;28;20026;-72
2022/07/22 01:28:30;;;;;;;7.78;5.95;;;19.10;69.00;;;;;;5012160;28;20038;-73
2022/07/22 01:30:56;;;;;;;8.32;5.65;;;19.10;69.30;;;;;;5012191;28;20113;-72
2022/07/22 01:33:23;;;;;;;10.50;6.05;;;19.00;69.70;;;;;;5012261;28;20057;-72
2022/07/22 01:35:49;;;;;;;8.82;5.65;;;19.00;69.80;;;;;;5012075;28;20053;-72
2022/07/22 01:38:15;;;;;;;8.07;5.85;;;19.00;69.80;;;;;;5011865;28;20083;-72
2022/07/22 01:40:41;;;;;;;11.63;5.95;;;18.90;70.00;;;;;;5012003;28;20097;-76
2022/07/22 01:43:07;;;;;;;6.95;5.57;;;18.90;70.30;;;;;;5012036;28;20539;-72
2022/07/22 01:45:33;;;;;;;7.07;5.78;;;18.90;70.40;;;;;;5012004;28;20099;-72
2022/07/22 01:47:59;;;;;;;9.60;6.40;;;18.90;70.40;;;;;;5011833;28;20038;-72
2022/07/22 01:50:24;;;;;;;13.05;6.25;;;19.00;70.10;;;;;;5011422;28;20014;-72
2022/07/22 01:52:50;;;;;;;8.88;5.65;;;19.00;69.80;;;;;;5011702;28;20094;-72
2022/07/22 01:55:16;;;;;;;11.73;5.95;;;19.00;69.80;;;;;;5011850;28;20058;-72
2022/07/22 01:57:42;;;;;;;7.88;6.07;;;19.00;69.90;;;;;;5011543;28;20081;-71
2022/07/22 02:00:09;;;;;;;6.40;5.78;;;19.00;69.80;;;;;;5011807;28;20049;-72
2022/07/22 02:02:35;;;;;;;6.95;5.40;;;19.00;69.80;;;;;;5011668;28;20041;-72
2022/07/22 02:05:02;;;;;;;9.20;6.32;;;19.00;69.90;;;;;;5011480;28;20389;-72
2022/07/22 02:07:27;;;;;;;10.75;6.28;;;18.80;70.20;;;;;;5011672;28;20022;-72
2022/07/22 02:09:53;;;;;;;7.13;5.65;;;18.60;70.90;;;;;;5010149;28;20018;-72
2022/07/22 02:12:19;;;;;;;8.63;6.97;;;18.60;72.40;;;;;;5011473;28;20091;-72
2022/07/22 02:14:45;;;;;;;8.98;5.85;;;18.50;71.80;;;;;;5011617;28;20428;-73
2022/07/22 02:17:11;;;;;;;7.50;6.28;;;18.50;71.90;;;;;;5011301;28;20022;-73
2022/07/22 02:19:37;;;;;;;8.23;5.93;;;18.40;72.20;;;;;;5011262;28;20078;-72
2022/07/22 02:22:03;;;;;;;8.23;5.80;;;18.30;72.50;;;;;;5011095;28;20025;-71
2022/07/22 02:24:29;;;;;;;7.50;6.10;;;18.30;72.90;;;;;;5011245;28;20101;-73
2022/07/22 02:26:55;;;;;;;7.95;6.10;;;18.30;72.70;;;;;;5011278;28;20017;-73
2022/07/22 02:29:21;;;;;;;7.32;5.65;;;18.40;72.40;;;;;;5011235;28;20044;-72
2022/07/22 02:31:46;;;;;;;10.68;5.82;;;18.50;71.90;;;;;;5011197;28;20024;-73
2022/07/22 02:34:12;;;;;;;7.03;5.35;;;18.70;71.50;;;;;;5011293;28;20108;-73
2022/07/22 02:36:37;;;;;;;8.80;5.90;;;18.80;70.80;;;;;;5011090;28;20497;-73
2022/07/22 02:39:04;;;;;;;10.13;5.97;;;18.90;70.40;;;;;;5011149;28;20525;-73
2022/07/22 02:41:29;;;;;;;7.35;5.80;;;19.00;70.10;;;;;;5011045;28;20040;-73
2022/07/22 02:43:55;;;;;;;8.18;5.85;;;18.90;70.20;;;;;;5011072;28;20026;-72
2022/07/22 02:46:22;;;;;;;6.95;5.60;;;18.90;70.20;;;;;;5010936;28;20050;-72
2022/07/22 02:48:48;;;;;;;6.38;5.50;;;18.80;70.30;;;;;;5010949;28;20040;-73
2022/07/22 02:51:14;;;;;;;7.38;5.55;;;18.80;70.90;;;;;;5010720;28;20109;-73
2022/07/22 02:53:39;;;;;;;8.32;5.60;;;18.80;70.70;;;;;;5010735;28;20026;-73
2022/07/22 02:56:05;;;;;;;7.13;6.20;;;18.80;70.80;;;;;;5010641;28;20050;-73
2022/07/22 02:58:31;;;;;;;7.90;5.47;;;18.90;70.40;;;;;;5010808;28;20034;-72
2022/07/22 03:00:56;;;;;;;11.07;5.85;;;18.80;70.60;;;;;;5010718;28;20022;-72
2022/07/22 03:03:23;;;;;;;7.88;5.82;;;18.80;70.50;;;;;;5009573;28;20048;-73
2022/07/22 03:05:49;;;;;;;9.98;6.57;;;18.60;70.90;;;;;;5010704;28;20019;-72
2022/07/22 03:08:14;;;;;;;7.32;6.30;;;18.50;71.20;;;;;;5010373;28;20030;-72
2022/07/22 03:10:40;;;;;;;6.40;5.72;;;18.50;71.40;;;;;;5010653;28;20083;-72
2022/07/22 03:13:06;;;;;;;7.32;5.75;;;18.40;71.70;;;;;;5010534;28;20109;-71
2022/07/22 03:15:31;;;;;;;10.07;6.18;;;18.50;71.60;;;;;;5010596;28;20490;-71
2022/07/22 03:17:57;;;;;;;7.97;6.25;;;18.40;71.40;;;;;;5010392;28;20498;-72
2022/07/22 03:20:22;;;;;;;5.90;5.35;;;18.40;71.80;;;;;;5010448;28;20462;-72
2022/07/22 03:22:48;;;;;;;8.63;6.15;;;18.30;72.20;;;;;;5010274;28;20106;-72
2022/07/22 03:25:13;;;;;;;9.30;6.47;;;18.30;72.10;;;;;;5010345;28;20531;-73
2022/07/22 03:27:39;;;;;;;6.20;5.60;;;18.20;72.20;;;;;;5010090;28;20110;-72
2022/07/22 03:30:06;;;;;;;9.10;5.90;;;18.00;72.80;;;;;;5010422;28;20381;-72
2022/07/22 03:32:31;;;;;;;8.50;5.90;;;17.90;73.80;;;;;;5009870;28;20131;-72
2022/07/22 03:34:57;;;;;;;8.93;6.60;;;17.80;73.90;;;;;;5010352;28;20026;-72
2022/07/22 03:37:22;;;;;;;7.78;5.88;;;17.80;74.20;;;;;;5010047;28;20033;-72
2022/07/22 03:39:48;;;;;;;10.52;5.85;;;17.80;74.30;;;;;;5010109;28;20105;-73
2022/07/22 03:42:14;;;;;;;8.85;6.90;;;17.90;74.20;;;;;;5010162;28;20022;-74
2022/07/22 03:44:39;;;;;;;7.68;5.60;;;17.90;74.00;;;;;;5010216;28;20033;-72
2022/07/22 03:47:05;;;;;;;7.18;6.35;;;17.90;73.90;;;;;;5010106;28;20026;-73
2022/07/22 03:49:31;;;;;;;9.73;6.47;;;17.80;74.00;;;;;;5008693;28;20128;-73
2022/07/22 03:51:57;;;;;;;8.73;5.95;;;17.80;74.20;;;;;;5009578;28;20029;-72
2022/07/22 03:54:23;;;;;;;9.70;6.60;;;17.80;74.40;;;;;;5009932;28;20026;-72
2022/07/22 03:56:48;;;;;;;8.80;6.03;;;17.80;74.00;;;;;;5009377;28;20045;-72
2022/07/22 03:59:14;;;;;;;9.25;5.60;;;17.80;74.30;;;;;;5009947;28;20421;-73
2022/07/22 04:01:40;;;;;;;6.85;5.80;;;17.90;74.10;;;;;;5008499;28;20037;-72
2022/07/22 04:04:06;;;;;;;6.70;5.63;;;18.00;74.00;;;;;;5009627;28;20056;-72
2022/07/22 04:06:31;;;;;;;8.23;5.88;;;18.10;73.60;;;;;;5009694;28;20026;-73
2022/07/22 04:08:57;;;;;;;9.07;5.43;;;18.20;73.40;;;;;;5009785;28;20069;-73
2022/07/22 04:11:23;;;;;;;8.52;6.43;;;18.40;72.70;;;;;;5009748;28;20034;-72
2022/07/22 04:13:48;;;;;;;9.40;6.10;;;18.40;72.00;;;;;;5009444;28;20539;-72
2022/07/22 04:16:14;;;;;;;8.15;5.55;;;18.50;71.80;;;;;;5009571;28;20029;-72
2022/07/22 04:18:39;;;;;;;10.07;5.68;;;18.60;71.10;;;;;;5009468;28;20034;-73
2022/07/22 04:21:05;;;;;;;10.32;5.55;;;18.60;70.80;;;;;;5009629;28;20086;-72
2022/07/22 04:23:30;;;;;;;11.63;5.55;;;18.60;71.10;;;;;;5009143;28;20026;-72
2022/07/22 04:25:56;;;;;;;6.45;5.47;;;18.60;71.00;;;;;;5009500;28;20396;-72
2022/07/22 04:28:21;;;;;;;7.70;5.30;;;18.60;71.00;;;;;;5009866;28;20038;-72
2022/07/22 04:30:47;;;;;;;11.13;5.97;;;18.70;70.70;;;;;;5009084;28;20030;-72
2022/07/22 04:33:13;;;;;;;8.02;5.70;;;18.90;70.20;;;;;;5009272;28;20567;-72
2022/07/22 04:35:38;;;;;;;6.82;5.43;;;18.90;70.10;;;;;;5009221;28;20030;-72
2022/07/22 04:38:04;;;;;;;7.28;5.82;;;18.90;69.90;;;;;;5007944;28;20080;-74
2022/07/22 04:40:30;;;;;;;8.30;6.05;;;19.00;69.60;;;;;;5007938;28;20467;-72
2022/07/22 04:42:55;;;;;;;8.75;6.35;;;19.10;69.50;;;;;;5009389;28;20022;-72
2022/07/22 04:45:21;;;;;;;6.65;5.85;;;19.00;69.50;;;;;;5009893;28;20030;-72
2022/07/22 04:47:46;;;;;;;8.10;5.78;;;18.90;69.80;;;;;;5013776;28;20034;-73
2022/07/22 04:50:12;;;;;;;8.43;6.88;;;19.00;69.50;;;;;;5013868;28;20022;-73
2022/07/22 04:52:38;;;;;;;9.23;6.13;;;19.10;69.30;;;;;;5012261;28;20068;-72
2022/07/22 04:55:04;;;;;;;12.88;6.57;;;19.20;69.20;;;;;;5012606;28;20098;-73
2022/07/22 04:57:29;;;;;;;9.85;6.50;;;19.20;68.90;;;;;;5012246;28;20054;-72
2022/07/22 04:59:55;;;;;;;10.82;6.60;;;19.20;68.80;;;;;;5012457;28;20026;-73
2022/07/22 05:02:21;;;;;;;8.15;6.22;;;19.30;68.80;;;;;;5011102;28;20478;-72
2022/07/22 05:04:47;;;;;;;7.63;5.88;;;19.30;68.80;;;;;;5012445;28;20031;-73
2022/07/22 05:07:12;;;;;;;15.77;6.22;;;19.30;68.40;;;;;;5012243;28;20428;-73
2022/07/22 05:09:38;;;;;;;8.70;5.53;;;19.50;68.20;;;;;;5012318;28;20074;-73
2022/07/22 05:12:04;;;;;;;7.35;6.13;;;19.50;68.20;;;;;;5012007;28;20022;-72
2022/07/22 05:14:30;;;;;;;6.95;6.18;;;19.60;67.60;;;;;;5012030;28;20367;-72
2022/07/22 05:16:55;;;;;;;7.85;5.65;;;19.70;67.50;;;;;;5011907;28;20030;-73
2022/07/22 05:19:21;;;;;;;12.88;6.30;;;19.80;67.30;;;;;;5012141;28;20030;-73
2022/07/22 05:21:46;;;;;;;9.40;5.38;;;19.90;67.00;;;;;;5012080;28;20091;-72
2022/07/22 05:24:13;;;;;;;7.80;5.68;;;20.00;67.00;;;;;;5012141;28;20033;-72
2022/07/22 05:26:38;;;;;;;9.60;5.90;;;20.10;66.60;;;;;;5012022;28;20061;-72
2022/07/22 05:29:04;;;;;;;8.82;6.18;;;20.20;66.20;;;;;;5011955;28;20493;-72
2022/07/22 05:31:29;;;;;;;9.93;5.57;;;20.30;66.00;;;;;;5011871;28;20060;-75
2022/07/22 05:33:56;;;;;;;7.22;5.50;;;20.40;65.60;;;;;;5011526;28;20029;-73
2022/07/22 05:36:21;;;;;;;5.80;4.97;;;20.40;65.30;;;;;;5011656;28;20105;-72
2022/07/22 05:38:47;;;;;;;7.57;5.55;;;20.50;65.30;;;;;;5011723;28;20113;-73
2022/07/22 05:41:13;;;;;;;9.65;5.93;;;20.60;64.90;;;;;;5011634;28;20463;-71
2022/07/22 05:43:38;;;;;;;6.22;5.32;;;20.70;64.80;;;;;;5011545;28;20042;-72
2022/07/22 05:46:04;;;;;;;8.80;5.97;;;20.80;64.20;;;;;;5011882;28;20061;-72
2022/07/22 05:48:30;;;;;;;8.02;5.22;;;20.90;63.90;;;;;;5011456;28;20058;-73
2022/07/22 05:50:55;;;;;;;7.05;5.72;;;20.90;63.90;;;;;;5011492;28;20030;-72
2022/07/22 05:53:21;;;;;;;7.70;5.22;;;21.10;63.80;;;;;;5011315;28;20026;-72
2022/07/22 05:55:46;;;;;;;6.70;5.90;;;21.10;63.50;;;;;;5010672;28;20022;-73
2022/07/22 05:58:12;;;;;;;8.32;5.72;;;21.20;63.10;;;;;;5011217;28;20049;-72
2022/07/22 06:00:39;;;;;;;7.82;5.28;;;21.40;62.80;;;;;;5009887;28;20135;-72
2022/07/22 06:03:05;;;;;;;7.25;5.43;;;21.50;62.30;;;;;;5011002;28;20044;-72
2022/07/22 06:05:31;;;;;;;8.88;5.55;;;21.60;61.60;;;;;;5010854;28;20018;-72
2022/07/22 06:07:56;;;;;;;7.53;5.90;;;21.80;61.20;;;;;;5010895;28;20040;-72
2022/07/22 06:10:22;;;;;;;9.68;6.22;;;21.90;60.60;;;;;;5010410;28;20432;-72
2022/07/22 06:12:47;;;;;;;7.80;5.68;;;22.00;60.10;;;;;;5009598;28;20038;-74
2022/07/22 06:15:13;;;;;;;7.40;5.70;;;22.10;59.70;;;;;;5010883;28;20029;-72
2022/07/22 06:17:39;;;;;;;7.07;5.60;;;22.10;60.00;;;;;;5010680;28;20037;-72
2022/07/22 06:20:05;;;;;;;10.00;5.82;;;22.10;59.90;;;;;;5010688;28;20097;-72
2022/07/22 06:22:31;;;;;;;7.10;5.30;;;22.10;59.90;;;;;;5010820;28;20071;-72
2022/07/22 06:24:56;;;;;;;7.05;6.10;;;22.20;59.70;;;;;;5010622;28;20412;-72
2022/07/22 06:27:22;;;;;;;9.75;6.03;;;22.30;59.40;;;;;;5010711;28;20649;-72
2022/07/22 06:29:48;;;;;;;7.65;6.07;;;22.30;59.00;;;;;;5010625;28;20414;-72
2022/07/22 06:32:14;;;;;;;8.40;6.28;;;22.30;59.20;;;;;;5010645;28;20030;-72
2022/07/22 06:34:39;;;;;;;8.38;6.18;;;22.30;59.20;;;;;;5010477;28;20026;-72
2022/07/22 06:37:05;;;;;;;7.07;6.15;;;22.20;59.70;;;;;;5010369;28;20033;-72
2022/07/22 06:39:31;;;;;;;15.70;6.82;;;22.30;59.70;;;;;;5010571;28;20030;-72
2022/07/22 06:41:56;;;;;;;8.07;6.10;;;22.30;59.70;;;;;;5010549;28;20082;-72
2022/07/22 06:44:22;;;;;;;9.70;6.28;;;22.10;60.60;;;;;;5010437;28;20032;-71
2022/07/22 06:46:47;;;;;;;10.02;7.03;;;22.00;60.90;;;;;;5010520;28;20054;-73
2022/07/22 06:49:13;;;;;;;9.02;6.53;;;22.00;60.50;;;;;;5010463;28;20129;-73
2022/07/22 06:51:38;;;;;;;6.78;6.07;;;21.90;61.60;;;;;;5010713;28;20045;-73
2022/07/22 06:54:04;;;;;;;10.95;5.65;;;22.00;61.40;;;;;;5010642;28;20032;-73
2022/07/22 06:56:30;;;;;;;9.20;6.80;;;22.10;60.60;;;;;;5010359;28;20038;-73
2022/07/22 06:58:55;;;;;;;7.60;5.78;;;22.10;61.00;;;;;;5010336;28;20389;-73
2022/07/22 07:01:21;;;;;;;9.20;6.40;;;22.30;60.50;;;;;;5010515;28;20026;-74
2022/07/22 07:03:47;;;;;;;9.32;6.72;;;22.30;60.00;;;;;;5010561;28;20030;-74
2022/07/22 07:06:12;;;;;;;9.95;6.63;;;22.40;59.80;;;;;;5010282;28;20088;-74
2022/07/22 07:08:40;;;;;;;7.63;6.55;;;22.40;59.80;;;;;;5009425;28;20032;-73
2022/07/22 07:11:05;;;;;;;11.48;6.97;;;22.60;59.50;;;;;;5010194;28;20281;-73
2022/07/22 07:13:31;;;;;;;8.95;6.57;;;22.60;59.60;;;;;;5010169;28;20117;-73
2022/07/22 07:15:57;;;;;;;12.25;7.10;;;22.50;60.00;;;;;;5009956;28;20101;-74
2022/07/22 07:18:23;;;;;;;9.65;6.18;;;22.50;60.40;;;;;;5009697;28;20121;-74
2022/07/22 07:20:48;;;;;;;9.98;6.72;;;22.50;60.60;;;;;;5010077;28;20386;-74
2022/07/22 07:23:14;;;;;;;11.80;6.85;;;22.70;60.20;;;;;;5009887;28;20087;-74
2022/07/22 07:25:40;;;;;;;13.90;7.60;;;22.80;59.30;;;;;;5009936;28;20030;-73
2022/07/22 07:28:06;;;;;;;9.85;6.30;;;23.00;59.00;;;;;;5009791;28;20030;-73
2022/07/22 07:30:31;;;;;;;11.30;5.63;;;23.20;58.30;;;;;;5009485;28;20029;-73
2022/07/22 07:33:00;;;;;;;7.80;6.18;;;23.50;57.70;;;;;;5009787;28;20030;-74
2022/07/22 07:35:26;;;;;;;6.20;5.60;;;23.70;56.70;;;;;;5009733;28;20026;-73
2022/07/22 07:37:53;;;;;;;10.27;6.65;;;23.90;55.90;;;;;;5008207;28;20033;-74
2022/07/22 07:40:19;;;;;;;7.18;5.50;;;24.10;55.80;;;;;;5009825;28;20034;-73
2022/07/22 07:42:44;;;;;;;10.20;6.70;;;24.10;54.70;;;;;;5009579;28;20025;-73
2022/07/22 07:45:10;;;;;;;7.50;6.28;;;24.10;54.90;;;;;;5009340;28;20555;-75
2022/07/22 07:47:36;;;;;;;6.28;5.60;;;24.00;55.60;;;;;;5009251;28;20019;-73
2022/07/22 07:50:02;;;;;;;7.07;5.93;;;24.00;55.20;;;;;;5009838;28;20026;-74
2022/07/22 07:52:28;;;;;;;6.53;5.63;;;24.00;54.80;;;;;;5009778;28;20025;-73
2022/07/22 07:54:55;;;;;;;8.10;6.18;;;24.20;54.70;;;;;;5009705;28;20104;-73
2022/07/22 07:57:21;;;;;;;9.25;6.50;;;24.20;55.20;;;;;;5009408;28;20038;-73
2022/07/22 07:59:47;;;;;;;8.05;6.25;;;24.20;55.50;;;;;;5009690;28;20049;-73
2022/07/22 08:02:12;;;;;;;9.80;6.60;;;24.10;56.10;;;;;;5009492;28;20111;-72
2022/07/22 08:04:38;;;;;;;13.25;7.47;;;24.10;56.30;;;;;;5008430;28;20022;-72
2022/07/22 08:07:06;;;;;;;12.10;6.82;;;24.00;56.80;;;;;;5007857;28;20026;-73
2022/07/22 08:09:32;;;;;;;8.40;6.95;;;24.10;56.50;;;;;;5009690;28;20034;-72
2022/07/22 08:11:58;;;;;;;8.63;6.75;;;24.20;57.40;;;;;;5009280;28;20018;-73
2022/07/22 08:14:24;;;;;;;8.88;7.28;;;24.20;57.30;;;;;;5008646;28;20040;-72
2022/07/22 08:16:50;;;;;;;11.95;6.78;;;24.20;56.50;;;;;;5008771;28;20110;-73
2022/07/22 08:19:15;;;;;;;8.98;6.93;;;24.20;57.30;;;;;;5010102;28;20068;-72
2022/07/22 08:21:42;;;;;;;10.73;7.05;;;24.30;57.60;;;;;;5012580;28;20037;-72
2022/07/22 08:24:09;;;;;;;10.57;7.28;;;24.40;57.20;;;;;;5012815;28;20026;-72
2022/07/22 08:26:35;;;;;;;9.55;7.13;;;24.30;56.40;;;;;;5011969;28;20104;-73
2022/07/22 08:29:01;;;;;;;10.27;7.25;;;24.50;57.00;;;;;;5012157;28;20104;-71
2022/07/22 08:31:28;;;;;;;11.40;6.95;;;24.50;56.90;;;;;;5012495;28;20034;-73
2022/07/22 08:33:54;;;;;;;10.65;7.68;;;24.30;57.30;;;;;;5012717;28;20045;-72
2022/07/22 08:36:20;;;;;;;10.77;7.47;;;24.40;57.10;;;;;;5011158;28;20033;-72
2022/07/22 08:38:45;;;;;;;10.57;7.55;;;24.50;56.80;;;;;;5012340;28;20038;-73
2022/07/22 08:41:13;;;;;;;9.15;7.22;;;24.50;57.30;;;;;;5012061;28;20054;-73
2022/07/22 08:43:42;;;;;;;12.57;7.57;;;24.60;57.00;;;;;;5011566;28;20116;-73
2022/07/22 08:46:07;;;;;;;10.48;7.20;;;24.70;56.10;;;;;;5012509;28;20026;-73
2022/07/22 08:48:37;;;;;;;8.98;7.03;;;24.70;56.60;;;;;;5012763;28;20115;-73
2022/07/22 08:51:02;;;;;;;14.38;7.28;;;24.80;55.60;;;;;;5011260;28;20558;-73
2022/07/22 08:53:28;;;;;;;10.82;6.80;;;24.90;56.00;;;;;;5010359;28;20121;-73
2022/07/22 08:55:54;;;;;;;9.43;7.15;;;24.90;55.20;;;;;;5010654;28;20022;-73
2022/07/22 08:58:19;;;;;;;8.32;6.70;;;24.90;55.80;;;;;;5010787;28;20617;-73
2022/07/22 09:00:45;;;;;;;10.23;6.97;;;25.10;53.90;;;;;;5011045;28;20109;-72
2022/07/22 09:03:21;;;;;;;9.18;6.72;;;25.10;54.10;;;;;;5011244;28;20045;-72
2022/07/22 09:05:54;;;;;;;8.18;7.05;;;25.40;52.50;;;;;;5010787;28;20393;-75
2022/07/22 09:08:21;;;;;;;6.72;6.00;;;25.50;52.00;;;;;;5010811;28;20022;-72
2022/07/22 09:10:47;;;;;;;11.65;6.20;;;25.70;50.70;;;;;;5011884;28;20033;-72
2022/07/22 09:13:15;;;;;;;8.75;6.57;;;25.90;48.30;;;;;;5011678;28;20022;-73
2022/07/22 09:15:50;;;;;;;7.53;5.88;;;26.20;48.40;;;;;;5010452;28;20029;-73
2022/07/22 09:18:16;;;;;;;9.88;5.80;;;26.40;46.60;;;;;;5010645;28;20502;-73
2022/07/22 09:20:43;;;;;;;7.28;6.25;;;26.50;45.00;;;;;;5010597;28;20057;-73
2022/07/22 09:23:16;;;;;;;7.05;5.45;;;26.60;45.20;;;;;;5010595;28;20030;-72
2022/07/22 09:25:42;;;;;;;6.38;5.47;;;26.80;45.00;;;;;;5011145;28;20046;-73
2022/07/22 09:28:08;;;;;;;9.75;5.68;;;26.90;45.00;;;;;;5010650;28;20141;-73
2022/07/22 09:30:37;;;;;;;6.32;5.70;;;27.10;45.00;;;;;;5009808;28;20022;-72
2022/07/22 09:33:04;;;;;;;7.88;6.25;;;27.20;43.50;;;;;;5010529;28;20093;-72
2022/07/22 09:35:30;;;;;;;8.57;5.88;;;27.30;42.30;;;;;;5010636;28;20113;-72
2022/07/22 09:38:15;;;;;;;7.18;5.57;;;27.30;41.10;;;;;;5010387;28;20037;-74
2022/07/22 09:40:48;;;;;;;5.97;5.38;;;27.20;41.00;;;;;;5010651;28;20026;-73
2022/07/22 09:43:17;;;;;;;8.25;5.65;;;27.20;40.40;;;;;;5011657;28;20363;-73
2022/07/22 09:45:58;;;;;;;8.25;5.35;;;27.20;41.70;;;;;;5010147;28;20021;-72
2022/07/22 09:48:25;;;;;;;7.30;5.45;;;27.30;42.00;;;;;;5010613;28;20034;-73
2022/07/22 09:50:52;;;;;;;6.68;5.20;;;27.40;42.00;;;;;;5010306;28;20022;-73
2022/07/22 09:53:22;;;;;;;7.57;5.30;;;27.50;39.00;;;;;;5010386;28;20030;-73
2022/07/22 09:55:48;;;;;;;6.13;4.90;;;27.50;38.30;;;;;;5011234;28;20018;-74
2022/07/22 09:58:14;;;;;;;8.80;5.20;;;27.60;38.70;;;;;;5011388;28;20065;-74
2022/07/22 10:00:41;;;;;;;10.48;5.50;;;27.70;38.20;;;;;;5010034;28;20131;-73
2022/07/22 10:03:10;;;;;;;6.05;4.50;;;27.80;38.10;;;;;;5009959;28;20022;-74
2022/07/22 10:05:42;;;;;;;6.20;4.95;;;27.90;37.80;;;;;;5011080;28;20101;-74
2022/07/22 10:08:08;;;;;;;7.03;4.57;;;28.00;36.50;;;;;;5009811;28;20033;-74
2022/07/22 10:10:36;;;;;;;6.70;5.00;;;28.10;35.60;;;;;;5009710;28;20026;-73
2022/07/22 10:13:02;;;;;;;7.45;4.95;;;28.20;34.70;;;;;;5009197;28;20053;-73
2022/07/22 10:15:29;;;;;;;6.15;4.93;;;28.40;36.30;;;;;;5009793;28;20116;-74
2022/07/22 10:17:58;;;;;;;6.60;4.80;;;28.40;35.40;;;;;;5008918;28;20120;-74
2022/07/22 10:20:26;;;;;;;6.65;4.95;;;28.40;35.40;;;;;;5008522;28;20026;-74
2022/07/22 10:22:58;;;;;;;6.50;4.38;;;28.50;35.40;;;;;;5009451;28;20378;-74
2022/07/22 10:25:29;;;;;;;10.18;7.75;;;28.70;35.30;;;;;;5009187;28;20026;-74
2022/07/22 10:27:56;;;;;;;6.55;5.07;;;29.00;35.50;;;;;;5009449;28;20027;-74
2022/07/22 10:30:26;;;;;;;5.28;4.38;;;29.10;34.70;;;;;;5009247;28;20026;-74
2022/07/22 10:33:02;;;;;;;8.20;5.10;;;29.20;35.30;;;;;;5009362;28;20458;-74
2022/07/22 10:35:28;;;;;;;6.15;4.80;;;29.40;34.70;;;;;;5008730;28;20030;-73
2022/07/22 10:37:56;;;;;;;5.97;4.25;;;29.40;35.60;;;;;;5009216;28;20114;-72
2022/07/22 10:40:25;;;;;;;5.00;4.43;;;29.40;32.60;;;;;;5009291;28;20014;-73
2022/07/22 10:43:00;;;;;;;6.30;4.53;;;29.40;32.10;;;;;;5009476;28;20075;-73
2022/07/22 10:45:32;;;;;;;8.65;4.50;;;29.40;32.10;;;;;;5009364;28;20028;-73
2022/07/22 10:48:01;;;;;;;4.93;4.40;;;29.50;33.40;;;;;;5009332;28;20037;-72
2022/07/22 10:50:35;;;;;;;6.05;4.53;;;29.70;32.90;;;;;;5008997;28;20030;-72
2022/07/22 10:53:31;;;;;;;6.15;4.38;;;29.80;33.10;;;;;;5009159;28;20107;-73
2022/07/22 10:56:00;;;;;;;5.32;4.80;;;29.90;32.30;;;;;;4986244;28;20474;-74
2022/07/22 10:58:34;;;;;;;4.78;4.15;;;30.10;32.80;;;;;;5008649;28;20038;-74
2022/07/22 11:01:02;;;;;;;5.35;4.65;;;30.30;31.30;;;;;;5009050;28;20018;-73
2022/07/22 11:03:29;;;;;;;4.55;4.10;;;30.20;30.50;;;;;;5009002;28;20115;-73
2022/07/22 11:05:56;;;;;;;5.68;4.10;;;30.30;30.70;;;;;;5008983;28;20030;-72
2022/07/22 11:08:22;;;;;;;6.13;4.10;;;30.50;31.80;;;;;;5009064;28;20026;-74
2022/07/22 11:10:51;;;;;;;5.13;4.20;;;30.70;30.70;;;;;;5009383;28;20378;-74
2022/07/22 11:13:36;;;;;;;6.07;4.40;;;30.80;29.70;;;;;;5009217;28;20029;-74
2022/07/22 11:16:19;;;;;;;;;;;30.90;30.70;;;;;;5011001;28;20030;-75
2022/07/22 11:18:55;;;;;;;7.18;4.78;;;31.10;30.40;;;;;;5009188;28;19936;-75
2022/07/22 11:21:30;;;;;;;4.65;3.78;;;31.20;30.10;;;;;;5008978;28;20378;-74
2022/07/22 11:23:59;;;;;;;4.45;3.83;;;31.20;29.70;;;;;;5008787;28;20026;-75
2022/07/22 11:26:41;;;;;;;6.75;4.35;;;31.40;29.30;;;;;;5008668;28;20029;-75
2022/07/22 11:29:09;;;;;;;4.78;3.92;;;31.70;29.20;;;;;;5009087;28;20026;-74
2022/07/22 11:31:35;;;;;;;5.63;4.25;;;31.90;28.40;;;;;;5008895;28;20026;-73
2022/07/22 11:34:08;;;;;;;4.50;4.10;;;32.00;27.80;;;;;;5008782;28;20022;-75
2022/07/22 11:36:35;;;;;;;8.45;4.10;;;32.20;27.90;;;;;;5009218;28;20033;-73
2022/07/22 11:39:02;;;;;;;4.32;3.92;;;32.30;27.40;;;;;;5008586;28;20352;-74
2022/07/22 11:41:30;;;;;;;6.28;4.22;;;32.40;26.00;;;;;;5008392;28;20052;-72
2022/07/22 11:43:56;;;;;;;4.38;3.83;;;32.30;25.80;;;;;;5008346;28;20386;-75
2022/07/22 11:46:23;;;;;;;3.97;3.58;;;32.20;26.90;;;;;;5008453;28;20022;-74
2022/07/22 11:48:48;;;;;;;9.07;4.25;;;32.40;27.30;;;;;;5008403;28;20026;-74
2022/07/22 11:51:15;;;;;;;6.10;4.50;;;32.50;26.30;;;;;;5009121;28;20486;-74
2022/07/22 11:53:41;;;;;;;7.32;4.25;;;32.60;26.60;;;;;;5010600;28;20435;-75
2022/07/22 11:56:09;;;;;;;6.35;4.35;;;32.50;26.30;;;;;;5014990;28;20046;-74
2022/07/22 11:58:54;;;;;;;4.90;4.20;;;32.50;26.40;;;;;;5015458;28;20470;-75
2022/07/22 12:01:20;;;;;;;4.93;4.25;;;32.70;25.80;;;;;;5015357;28;20078;-74
2022/07/22 12:03:49;;;;;;;5.82;4.00;;;32.50;25.40;;;;;;5015317;28;20372;-74
2022/07/22 12:06:16;;;;;;;3.95;3.55;;;32.60;25.80;;;;;;5015291;28;20022;-72
2022/07/22 12:08:49;;;;;;;6.70;4.43;;;32.80;26.90;;;;;;5015210;28;20071;-76
2022/07/22 12:11:16;;;;;;;4.80;3.70;;;33.10;26.80;;;;;;5015344;28;20037;-73
2022/07/22 12:13:47;;;;;;;5.15;4.22;;;33.10;24.80;;;;;;5014987;28;20056;-74
2022/07/22 12:16:20;;;;;;;4.65;3.78;;;33.10;22.50;;;;;;5015170;28;20026;-73
2022/07/22 12:18:52;;;;;;;5.47;4.30;;;33.00;22.90;;;;;;5015126;28;20063;-73
2022/07/22 12:21:18;;;;;;;5.70;4.00;;;33.00;25.00;;;;;;5014651;28;20130;-73
2022/07/22 12:23:51;;;;;;;6.75;4.15;;;33.10;25.50;;;;;;5014430;28;20038;-73
2022/07/22 12:26:16;;;;;;;4.88;3.60;;;33.40;25.10;;;;;;5014746;28;20033;-74
2022/07/22 12:28:42;;;;;;;6.30;4.15;;;33.60;24.00;;;;;;5014631;28;20025;-73
2022/07/22 12:31:07;;;;;;;8.07;3.78;;;33.90;23.80;;;;;;5015160;28;20471;-74
2022/07/22 12:33:33;;;;;;;5.65;3.63;;;34.10;23.60;;;;;;5014637;28;20032;-74
2022/07/22 12:36:05;;;;;;;5.28;3.83;;;34.20;21.40;;;;;;5013918;28;20034;-73
2022/07/22 12:38:31;;;;;;;4.30;3.63;;;34.30;21.70;;;;;;5016517;28;20045;-73
2022/07/22 12:41:17;;;;;;;4.85;3.90;;;34.50;21.10;;;;;;5015242;28;20022;-71
2022/07/22 12:43:43;;;;;;;5.65;4.00;;;34.60;20.70;;;;;;5014724;28;20055;-74